sensor_id;sensor_type;location;lat;lon;timestamp;P1;durP1;ratioP1;P2;durP2;ratioP2
75135;SDS011;63707;52.212;9.540;2024-03-07T00:01:46;37.42;;;17.88;;
75135;SDS011;63707;52.212;9.540;2024-03-07T00:04:12;38.38;;;19.13;;
75135;SDS011;63707;52.212;9.540;2024-03-07T00:06:37;33.45;;;17.55;;
75135;SDS011;63707;52.212;9.540;2024-03-07T00:09:04;37.65;;;18.58;;
75135;SDS011;63707;52.212;9.540;2024-03-07T00:11:29;35.63;;;18.67;;
75135;SDS011;63707;52.212;9.540;2024-03-07T00:13:55;38.53;;;18.98;;
75135;SDS011;63707;52.212;9.540;2024-03-07T00:16:21;42.40;;;19.10;;
75135;SDS011;63707;52.212;9.540;2024-03-07T00:18:46;43.30;;;19.33;;
75135;SDS011;63707;52.212;9.540;2024-03-07T00:21:11;36.28;;;18.75;;
75135;SDS011;63707;52.212;9.540;2024-03-07T00:23:37;41.35;;;20.33;;
75135;SDS011;63707;52.212;9.540;2024-03-07T00:26:05;41.72;;;19.52;;
75135;SDS011;63707;52.212;9.540;2024-03-07T00:28:30;37.90;;;19.13;;
75135;SDS011;63707;52.212;9.540;2024-03-07T00:31:00;39.10;;;20.13;;
75135;SDS011;63707;52.212;9.540;2024-03-07T00:33:25;41.03;;;19.98;;
75135;SDS011;63707;52.212;9.540;2024-03-07T00:35:51;39.55;;;19.80;;
75135;SDS011;63707;52.212;9.540;2024-03-07T00:38:16;39.10;;;20.23;;
75135;SDS011;63707;52.212;9.540;2024-03-07T00:40:42;39.72;;;19.45;;
75135;SDS011;63707;52.212;9.540;2024-03-07T00:43:09;44.33;;;19.33;;
75135;SDS011;63707;52.212;9.540;2024-03-07T00:45:34;41.25;;;19.75;;
75135;SDS011;63707;52.212;9.540;2024-03-07T00:48:00;39.88;;;20.20;;
75135;SDS011;63707;52.212;9.540;2024-03-07T00:50:26;40.65;;;20.40;;
75135;SDS011;63707;52.212;9.540;2024-03-07T00:52:52;41.92;;;21.27;;
75135;SDS011;63707;52.212;9.540;2024-03-07T00:55:18;39.72;;;20.10;;
75135;SDS011;63707;52.212;9.540;2024-03-07T00:57:43;44.55;;;21.02;;
75135;SDS011;63707;52.212;9.540;2024-03-07T01:00:12;39.78;;;19.30;;
75135;SDS011;63707;52.212;9.540;2024-03-07T01:02:39;44.65;;;21.02;;
75135;SDS011;63707;52.212;9.540;2024-03-07T01:05:08;42.22;;;19.60;;
75135;SDS011;63707;52.212;9.540;2024-03-07T01:07:34;46.40;;;21.25;;
75135;SDS011;63707;52.212;9.540;2024-03-07T01:10:00;43.75;;;19.83;;
75135;SDS011;63707;52.212;9.540;2024-03-07T01:12:27;41.53;;;19.67;;
75135;SDS011;63707;52.212;9.540;2024-03-07T01:14:55;42.53;;;19.63;;
75135;SDS011;63707;52.212;9.540;2024-03-07T01:17:23;37.40;;;17.95;;
75135;SDS011;63707;52.212;9.540;2024-03-07T01:19:49;34.55;;;17.13;;
75135;SDS011;63707;52.212;9.540;2024-03-07T01:22:14;38.22;;;17.48;;
75135;SDS011;63707;52.212;9.540;2024-03-07T01:24:40;37.50;;;17.48;;
75135;SDS011;63707;52.212;9.540;2024-03-07T01:27:06;37.22;;;17.05;;
75135;SDS011;63707;52.212;9.540;2024-03-07T01:29:31;34.72;;;16.70;;
75135;SDS011;63707;52.212;9.540;2024-03-07T01:31:57;38.17;;;18.05;;
75135;SDS011;63707;52.212;9.540;2024-03-07T01:34:24;35.90;;;16.77;;
75135;SDS011;63707;52.212;9.540;2024-03-07T01:36:49;37.72;;;17.33;;
75135;SDS011;63707;52.212;9.540;2024-03-07T01:39:15;37.47;;;16.67;;
75135;SDS011;63707;52.212;9.540;2024-03-07T01:41:41;39.42;;;17.52;;
75135;SDS011;63707;52.212;9.540;2024-03-07T01:44:06;37.47;;;16.85;;
75135;SDS011;63707;52.212;9.540;2024-03-07T01:46:32;32.38;;;16.58;;
75135;SDS011;63707;52.212;9.540;2024-03-07T01:48:58;39.80;;;18.05;;
75135;SDS011;63707;52.212;9.540;2024-03-07T01:51:25;42.05;;;17.35;;
75135;SDS011;63707;52.212;9.540;2024-03-07T01:53:52;35.22;;;15.80;;
75135;SDS011;63707;52.212;9.540;2024-03-07T01:56:18;36.20;;;15.65;;
75135;SDS011;63707;52.212;9.540;2024-03-07T01:58:44;39.63;;;17.20;;
75135;SDS011;63707;52.212;9.540;2024-03-07T02:01:11;35.50;;;17.10;;
75135;SDS011;63707;52.212;9.540;2024-03-07T02:03:39;38.75;;;15.95;;
75135;SDS011;63707;52.212;9.540;2024-03-07T02:06:05;39.42;;;16.42;;
75135;SDS011;63707;52.212;9.540;2024-03-07T02:08:32;34.65;;;16.38;;
75135;SDS011;63707;52.212;9.540;2024-03-07T02:10:57;37.45;;;16.95;;
75135;SDS011;63707;52.212;9.540;2024-03-07T02:13:23;36.95;;;17.48;;
75135;SDS011;63707;52.212;9.540;2024-03-07T02:15:48;41.35;;;17.63;;
75135;SDS011;63707;52.212;9.540;2024-03-07T02:18:14;43.03;;;17.88;;
75135;SDS011;63707;52.212;9.540;2024-03-07T02:20:43;37.03;;;17.92;;
75135;SDS011;63707;52.212;9.540;2024-03-07T02:23:09;41.22;;;18.13;;
75135;SDS011;63707;52.212;9.540;2024-03-07T02:25:34;38.83;;;18.00;;
75135;SDS011;63707;52.212;9.540;2024-03-07T02:28:03;41.67;;;18.33;;
75135;SDS011;63707;52.212;9.540;2024-03-07T02:30:29;39.15;;;18.50;;
75135;SDS011;63707;52.212;9.540;2024-03-07T02:32:57;42.22;;;18.38;;
75135;SDS011;63707;52.212;9.540;2024-03-07T02:35:24;38.95;;;17.92;;
75135;SDS011;63707;52.212;9.540;2024-03-07T02:37:51;41.80;;;18.45;;
75135;SDS011;63707;52.212;9.540;2024-03-07T02:40:17;42.42;;;19.02;;
75135;SDS011;63707;52.212;9.540;2024-03-07T02:42:42;41.78;;;18.13;;
75135;SDS011;63707;52.212;9.540;2024-03-07T02:45:08;42.85;;;18.65;;
75135;SDS011;63707;52.212;9.540;2024-03-07T02:47:35;40.17;;;18.08;;
75135;SDS011;63707;52.212;9.540;2024-03-07T02:50:03;40.92;;;18.55;;
75135;SDS011;63707;52.212;9.540;2024-03-07T02:52:31;49.35;;;19.25;;
75135;SDS011;63707;52.212;9.540;2024-03-07T02:54:58;42.83;;;19.20;;
75135;SDS011;63707;52.212;9.540;2024-03-07T02:57:24;43.08;;;19.60;;
75135;SDS011;63707;52.212;9.540;2024-03-07T02:59:49;41.30;;;18.15;;
75135;SDS011;63707;52.212;9.540;2024-03-07T03:02:15;44.13;;;19.60;;
75135;SDS011;63707;52.212;9.540;2024-03-07T03:04:40;43.88;;;19.33;;
75135;SDS011;63707;52.212;9.540;2024-03-07T03:07:06;44.72;;;20.45;;
75135;SDS011;63707;52.212;9.540;2024-03-07T03:09:32;43.63;;;19.30;;
75135;SDS011;63707;52.212;9.540;2024-03-07T03:12:00;44.58;;;18.52;;
75135;SDS011;63707;52.212;9.540;2024-03-07T03:14:25;45.85;;;20.80;;
75135;SDS011;63707;52.212;9.540;2024-03-07T03:16:51;52.30;;;21.05;;
75135;SDS011;63707;52.212;9.540;2024-03-07T03:19:16;42.20;;;19.05;;
75135;SDS011;63707;52.212;9.540;2024-03-07T03:21:42;47.42;;;19.65;;
75135;SDS011;63707;52.212;9.540;2024-03-07T03:24:07;45.33;;;20.10;;
75135;SDS011;63707;52.212;9.540;2024-03-07T03:26:33;50.47;;;19.50;;
75135;SDS011;63707;52.212;9.540;2024-03-07T03:29:00;49.75;;;20.65;;
75135;SDS011;63707;52.212;9.540;2024-03-07T03:31:25;48.90;;;20.20;;
75135;SDS011;63707;52.212;9.540;2024-03-07T03:33:51;50.97;;;20.58;;
75135;SDS011;63707;52.212;9.540;2024-03-07T03:36:17;46.58;;;20.08;;
75135;SDS011;63707;52.212;9.540;2024-03-07T03:38:44;43.78;;;20.20;;
75135;SDS011;63707;52.212;9.540;2024-03-07T03:41:09;45.28;;;20.08;;
75135;SDS011;63707;52.212;9.540;2024-03-07T03:43:39;49.00;;;21.30;;
75135;SDS011;63707;52.212;9.540;2024-03-07T03:46:06;45.50;;;19.80;;
75135;SDS011;63707;52.212;9.540;2024-03-07T03:48:35;45.85;;;19.25;;
75135;SDS011;63707;52.212;9.540;2024-03-07T03:51:00;50.15;;;20.30;;
75135;SDS011;63707;52.212;9.540;2024-03-07T03:53:26;45.67;;;20.02;;
75135;SDS011;63707;52.212;9.540;2024-03-07T03:55:51;47.33;;;21.23;;
75135;SDS011;63707;52.212;9.540;2024-03-07T03:58:17;53.15;;;20.95;;
75135;SDS011;63707;52.212;9.540;2024-03-07T04:00:42;60.72;;;22.58;;
75135;SDS011;63707;52.212;9.540;2024-03-07T04:03:09;57.05;;;22.88;;
75135;SDS011;63707;52.212;9.540;2024-03-07T04:05:35;53.60;;;22.17;;
75135;SDS011;63707;52.212;9.540;2024-03-07T04:08:00;58.83;;;24.45;;
75135;SDS011;63707;52.212;9.540;2024-03-07T04:10:26;58.90;;;24.00;;
75135;SDS011;63707;52.212;9.540;2024-03-07T04:12:51;60.30;;;23.60;;
75135;SDS011;63707;52.212;9.540;2024-03-07T04:15:17;58.25;;;23.05;;
75135;SDS011;63707;52.212;9.540;2024-03-07T04:17:43;61.40;;;24.95;;
75135;SDS011;63707;52.212;9.540;2024-03-07T04:20:11;56.75;;;24.15;;
75135;SDS011;63707;52.212;9.540;2024-03-07T04:22:38;61.53;;;26.00;;
75135;SDS011;63707;52.212;9.540;2024-03-07T04:25:04;61.10;;;24.67;;
75135;SDS011;63707;52.212;9.540;2024-03-07T04:27:32;56.30;;;23.02;;
75135;SDS011;63707;52.212;9.540;2024-03-07T04:29:59;56.63;;;23.80;;
75135;SDS011;63707;52.212;9.540;2024-03-07T04:32:24;57.80;;;24.10;;
75135;SDS011;63707;52.212;9.540;2024-03-07T04:34:50;61.33;;;25.35;;
75135;SDS011;63707;52.212;9.540;2024-03-07T04:37:17;64.90;;;26.00;;
75135;SDS011;63707;52.212;9.540;2024-03-07T04:39:42;61.72;;;25.75;;
75135;SDS011;63707;52.212;9.540;2024-03-07T04:42:08;62.17;;;25.77;;
75135;SDS011;63707;52.212;9.540;2024-03-07T04:44:34;63.13;;;26.20;;
75135;SDS011;63707;52.212;9.540;2024-03-07T04:47:01;66.68;;;26.77;;
75135;SDS011;63707;52.212;9.540;2024-03-07T04:49:27;58.22;;;25.05;;
75135;SDS011;63707;52.212;9.540;2024-03-07T04:51:54;63.83;;;26.15;;
75135;SDS011;63707;52.212;9.540;2024-03-07T04:54:22;63.08;;;26.25;;
75135;SDS011;63707;52.212;9.540;2024-03-07T04:56:49;65.05;;;25.52;;
75135;SDS011;63707;52.212;9.540;2024-03-07T04:59:15;63.65;;;26.90;;
75135;SDS011;63707;52.212;9.540;2024-03-07T05:01:42;63.72;;;27.15;;
75135;SDS011;63707;52.212;9.540;2024-03-07T05:04:08;62.40;;;26.17;;
75135;SDS011;63707;52.212;9.540;2024-03-07T05:06:34;69.35;;;28.75;;
75135;SDS011;63707;52.212;9.540;2024-03-07T05:08:59;63.78;;;27.33;;
75135;SDS011;63707;52.212;9.540;2024-03-07T05:11:28;64.78;;;27.75;;
75135;SDS011;63707;52.212;9.540;2024-03-07T05:13:53;65.68;;;28.02;;
75135;SDS011;63707;52.212;9.540;2024-03-07T05:16:19;66.82;;;28.75;;
75135;SDS011;63707;52.212;9.540;2024-03-07T05:18:45;63.90;;;27.55;;
75135;SDS011;63707;52.212;9.540;2024-03-07T05:21:10;66.18;;;27.55;;
75135;SDS011;63707;52.212;9.540;2024-03-07T05:23:54;77.78;;;28.55;;
75135;SDS011;63707;52.212;9.540;2024-03-07T05:26:20;74.78;;;29.10;;
75135;SDS011;63707;52.212;9.540;2024-03-07T05:28:47;75.43;;;29.50;;
75135;SDS011;63707;52.212;9.540;2024-03-07T05:31:12;73.35;;;28.85;;
75135;SDS011;63707;52.212;9.540;2024-03-07T05:33:37;69.72;;;29.27;;
75135;SDS011;63707;52.212;9.540;2024-03-07T05:36:03;72.93;;;29.45;;
75135;SDS011;63707;52.212;9.540;2024-03-07T05:38:39;83.45;;;30.70;;
75135;SDS011;63707;52.212;9.540;2024-03-07T05:41:05;72.88;;;29.30;;
75135;SDS011;63707;52.212;9.540;2024-03-07T05:43:31;86.07;;;31.88;;
75135;SDS011;63707;52.212;9.540;2024-03-07T05:45:58;84.32;;;31.42;;
75135;SDS011;63707;52.212;9.540;2024-03-07T05:48:25;87.35;;;30.63;;
75135;SDS011;63707;52.212;9.540;2024-03-07T05:50:51;89.20;;;32.97;;
75135;SDS011;63707;52.212;9.540;2024-03-07T05:53:17;89.80;;;31.05;;
75135;SDS011;63707;52.212;9.540;2024-03-07T05:55:43;90.68;;;31.17;;
75135;SDS011;63707;52.212;9.540;2024-03-07T05:58:08;96.78;;;32.90;;
75135;SDS011;63707;52.212;9.540;2024-03-07T06:00:35;94.65;;;32.80;;
75135;SDS011;63707;52.212;9.540;2024-03-07T06:03:04;100.75;;;33.35;;
75135;SDS011;63707;52.212;9.540;2024-03-07T06:05:30;108.05;;;35.45;;
75135;SDS011;63707;52.212;9.540;2024-03-07T06:07:56;111.15;;;35.65;;
75135;SDS011;63707;52.212;9.540;2024-03-07T06:10:21;128.38;;;35.95;;
75135;SDS011;63707;52.212;9.540;2024-03-07T06:12:49;125.28;;;34.58;;
75135;SDS011;63707;52.212;9.540;2024-03-07T06:15:15;128.40;;;35.83;;
75135;SDS011;63707;52.212;9.540;2024-03-07T06:17:41;118.65;;;34.80;;
75135;SDS011;63707;52.212;9.540;2024-03-07T06:20:12;124.85;;;37.97;;
75135;SDS011;63707;52.212;9.540;2024-03-07T06:22:50;130.85;;;36.67;;
75135;SDS011;63707;52.212;9.540;2024-03-07T06:25:16;122.82;;;34.67;;
75135;SDS011;63707;52.212;9.540;2024-03-07T06:27:45;134.52;;;36.75;;
75135;SDS011;63707;52.212;9.540;2024-03-07T06:30:14;107.70;;;33.83;;
75135;SDS011;63707;52.212;9.540;2024-03-07T06:32:41;117.85;;;37.42;;
75135;SDS011;63707;52.212;9.540;2024-03-07T06:35:07;116.95;;;33.05;;
75135;SDS011;63707;52.212;9.540;2024-03-07T06:37:34;102.88;;;32.40;;
75135;SDS011;63707;52.212;9.540;2024-03-07T06:40:00;103.07;;;32.88;;
75135;SDS011;63707;52.212;9.540;2024-03-07T06:42:25;91.03;;;31.25;;
75135;SDS011;63707;52.212;9.540;2024-03-07T06:44:51;101.80;;;32.63;;
75135;SDS011;63707;52.212;9.540;2024-03-07T06:47:16;88.03;;;30.10;;
75135;SDS011;63707;52.212;9.540;2024-03-07T06:49:42;98.80;;;32.22;;
75135;SDS011;63707;52.212;9.540;2024-03-07T06:52:07;100.90;;;33.17;;
75135;SDS011;63707;52.212;9.540;2024-03-07T06:54:34;110.80;;;35.20;;
75135;SDS011;63707;52.212;9.540;2024-03-07T06:57:00;114.65;;;35.50;;
75135;SDS011;63707;52.212;9.540;2024-03-07T06:59:26;141.35;;;36.20;;
75135;SDS011;63707;52.212;9.540;2024-03-07T07:01:51;141.27;;;36.88;;
75135;SDS011;63707;52.212;9.540;2024-03-07T07:04:19;144.35;;;36.53;;
75135;SDS011;63707;52.212;9.540;2024-03-07T07:06:44;133.13;;;37.58;;
75135;SDS011;63707;52.212;9.540;2024-03-07T07:09:10;136.65;;;35.17;;
75135;SDS011;63707;52.212;9.540;2024-03-07T07:11:37;131.63;;;37.25;;
75135;SDS011;63707;52.212;9.540;2024-03-07T07:14:03;137.95;;;37.15;;
75135;SDS011;63707;52.212;9.540;2024-03-07T07:16:28;157.30;;;40.15;;
75135;SDS011;63707;52.212;9.540;2024-03-07T07:18:56;128.07;;;36.10;;
75135;SDS011;63707;52.212;9.540;2024-03-07T07:21:21;125.38;;;36.35;;
75135;SDS011;63707;52.212;9.540;2024-03-07T07:23:47;134.98;;;37.28;;
75135;SDS011;63707;52.212;9.540;2024-03-07T07:26:12;142.85;;;36.97;;
75135;SDS011;63707;52.212;9.540;2024-03-07T07:28:39;159.43;;;39.05;;
75135;SDS011;63707;52.212;9.540;2024-03-07T07:31:05;143.82;;;38.47;;
75135;SDS011;63707;52.212;9.540;2024-03-07T07:33:31;150.68;;;39.28;;
75135;SDS011;63707;52.212;9.540;2024-03-07T07:35:57;166.52;;;38.78;;
75135;SDS011;63707;52.212;9.540;2024-03-07T07:38:22;156.45;;;41.50;;
75135;SDS011;63707;52.212;9.540;2024-03-07T07:40:48;172.13;;;39.22;;
75135;SDS011;63707;52.212;9.540;2024-03-07T07:43:14;183.80;;;38.67;;
75135;SDS011;63707;52.212;9.540;2024-03-07T07:45:41;165.02;;;38.15;;
75135;SDS011;63707;52.212;9.540;2024-03-07T07:48:07;169.40;;;39.95;;
75135;SDS011;63707;52.212;9.540;2024-03-07T07:50:32;173.75;;;41.20;;
75135;SDS011;63707;52.212;9.540;2024-03-07T07:52:59;155.55;;;38.97;;
75135;SDS011;63707;52.212;9.540;2024-03-07T07:55:25;178.35;;;41.53;;
75135;SDS011;63707;52.212;9.540;2024-03-07T07:57:52;165.77;;;39.13;;
75135;SDS011;63707;52.212;9.540;2024-03-07T08:00:19;166.35;;;38.53;;
75135;SDS011;63707;52.212;9.540;2024-03-07T08:02:52;146.75;;;36.13;;
75135;SDS011;63707;52.212;9.540;2024-03-07T08:05:18;160.48;;;36.58;;
75135;SDS011;63707;52.212;9.540;2024-03-07T08:07:44;141.88;;;38.83;;
75135;SDS011;63707;52.212;9.540;2024-03-07T08:10:11;158.98;;;38.45;;
75135;SDS011;63707;52.212;9.540;2024-03-07T08:12:36;185.50;;;36.58;;
75135;SDS011;63707;52.212;9.540;2024-03-07T08:15:02;181.52;;;39.70;;
75135;SDS011;63707;52.212;9.540;2024-03-07T08:17:28;182.98;;;39.55;;
75135;SDS011;63707;52.212;9.540;2024-03-07T08:19:55;180.55;;;38.00;;
75135;SDS011;63707;52.212;9.540;2024-03-07T08:22:20;183.80;;;38.70;;
75135;SDS011;63707;52.212;9.540;2024-03-07T08:24:46;206.88;;;41.20;;
75135;SDS011;63707;52.212;9.540;2024-03-07T08:27:11;199.15;;;40.30;;
75135;SDS011;63707;52.212;9.540;2024-03-07T08:29:37;212.88;;;42.35;;
75135;SDS011;63707;52.212;9.540;2024-03-07T08:32:02;201.35;;;41.15;;
75135;SDS011;63707;52.212;9.540;2024-03-07T08:34:28;211.98;;;42.38;;
75135;SDS011;63707;52.212;9.540;2024-03-07T08:36:55;274.67;;;42.38;;
75135;SDS011;63707;52.212;9.540;2024-03-07T08:39:20;233.98;;;41.95;;
75135;SDS011;63707;52.212;9.540;2024-03-07T08:41:47;226.25;;;44.45;;
75135;SDS011;63707;52.212;9.540;2024-03-07T08:44:12;204.85;;;43.90;;
75135;SDS011;63707;52.212;9.540;2024-03-07T08:46:38;241.23;;;42.30;;
75135;SDS011;63707;52.212;9.540;2024-03-07T08:49:04;212.40;;;43.97;;
75135;SDS011;63707;52.212;9.540;2024-03-07T08:51:30;198.88;;;41.70;;
75135;SDS011;63707;52.212;9.540;2024-03-07T08:53:58;247.93;;;43.83;;
75135;SDS011;63707;52.212;9.540;2024-03-07T08:56:24;236.90;;;44.45;;
75135;SDS011;63707;52.212;9.540;2024-03-07T08:58:49;212.18;;;43.00;;
75135;SDS011;63707;52.212;9.540;2024-03-07T09:01:15;222.32;;;42.58;;
75135;SDS011;63707;52.212;9.540;2024-03-07T09:03:40;208.50;;;43.40;;
75135;SDS011;63707;52.212;9.540;2024-03-07T09:06:06;185.90;;;43.38;;
75135;SDS011;63707;52.212;9.540;2024-03-07T09:08:31;220.77;;;43.50;;
75135;SDS011;63707;52.212;9.540;2024-03-07T09:10:58;188.88;;;41.13;;
75135;SDS011;63707;52.212;9.540;2024-03-07T09:13:24;184.68;;;42.40;;
75135;SDS011;63707;52.212;9.540;2024-03-07T09:15:50;202.20;;;43.67;;
75135;SDS011;63707;52.212;9.540;2024-03-07T09:18:15;179.43;;;40.80;;
75135;SDS011;63707;52.212;9.540;2024-03-07T09:20:41;173.73;;;41.00;;
75135;SDS011;63707;52.212;9.540;2024-03-07T09:23:06;206.98;;;43.45;;
75135;SDS011;63707;52.212;9.540;2024-03-07T09:25:32;172.73;;;41.55;;
75135;SDS011;63707;52.212;9.540;2024-03-07T09:27:59;175.23;;;40.63;;
75135;SDS011;63707;52.212;9.540;2024-03-07T09:30:25;204.95;;;42.45;;
75135;SDS011;63707;52.212;9.540;2024-03-07T09:32:52;183.57;;;42.05;;
75135;SDS011;63707;52.212;9.540;2024-03-07T09:35:20;198.35;;;39.55;;
75135;SDS011;63707;52.212;9.540;2024-03-07T09:37:46;183.73;;;43.85;;
75135;SDS011;63707;52.212;9.540;2024-03-07T09:40:12;165.45;;;41.75;;
75135;SDS011;63707;52.212;9.540;2024-03-07T09:42:41;178.32;;;41.25;;
75135;SDS011;63707;52.212;9.540;2024-03-07T09:45:11;180.13;;;42.55;;
75135;SDS011;63707;52.212;9.540;2024-03-07T09:47:39;164.85;;;40.60;;
75135;SDS011;63707;52.212;9.540;2024-03-07T09:50:05;166.82;;;40.22;;
75135;SDS011;63707;52.212;9.540;2024-03-07T09:52:33;171.15;;;41.17;;
75135;SDS011;63707;52.212;9.540;2024-03-07T09:55:01;165.27;;;41.90;;
75135;SDS011;63707;52.212;9.540;2024-03-07T09:57:27;176.43;;;43.80;;
75135;SDS011;63707;52.212;9.540;2024-03-07T09:59:57;174.73;;;41.25;;
75135;SDS011;63707;52.212;9.540;2024-03-07T10:02:26;171.80;;;42.88;;
75135;SDS011;63707;52.212;9.540;2024-03-07T10:04:53;169.48;;;43.53;;
75135;SDS011;63707;52.212;9.540;2024-03-07T10:07:19;153.10;;;41.85;;
75135;SDS011;63707;52.212;9.540;2024-03-07T10:09:45;147.40;;;41.67;;
75135;SDS011;63707;52.212;9.540;2024-03-07T10:12:12;148.35;;;39.35;;
75135;SDS011;63707;52.212;9.540;2024-03-07T10:14:37;139.73;;;39.33;;
75135;SDS011;63707;52.212;9.540;2024-03-07T10:17:04;131.40;;;37.22;;
75135;SDS011;63707;52.212;9.540;2024-03-07T10:19:31;126.90;;;36.97;;
75135;SDS011;63707;52.212;9.540;2024-03-07T10:21:57;117.68;;;34.03;;
75135;SDS011;63707;52.212;9.540;2024-03-07T10:24:26;108.13;;;32.85;;
75135;SDS011;63707;52.212;9.540;2024-03-07T10:26:53;122.95;;;34.95;;
75135;SDS011;63707;52.212;9.540;2024-03-07T10:29:22;115.72;;;34.75;;
75135;SDS011;63707;52.212;9.540;2024-03-07T10:31:48;108.57;;;33.63;;
75135;SDS011;63707;52.212;9.540;2024-03-07T10:34:14;104.97;;;32.88;;
75135;SDS011;63707;52.212;9.540;2024-03-07T10:36:42;97.07;;;31.73;;
75135;SDS011;63707;52.212;9.540;2024-03-07T10:39:08;103.30;;;30.58;;
75135;SDS011;63707;52.212;9.540;2024-03-07T10:41:41;95.05;;;31.35;;
75135;SDS011;63707;52.212;9.540;2024-03-07T10:44:10;107.03;;;31.77;;
75135;SDS011;63707;52.212;9.540;2024-03-07T10:46:42;86.95;;;28.95;;
75135;SDS011;63707;52.212;9.540;2024-03-07T10:49:12;99.68;;;33.13;;
75135;SDS011;63707;52.212;9.540;2024-03-07T10:51:44;84.13;;;30.30;;
75135;SDS011;63707;52.212;9.540;2024-03-07T10:54:13;81.70;;;29.02;;
75135;SDS011;63707;52.212;9.540;2024-03-07T10:56:48;85.28;;;29.02;;
75135;SDS011;63707;52.212;9.540;2024-03-07T10:59:30;73.38;;;27.75;;
75135;SDS011;63707;52.212;9.540;2024-03-07T11:01:59;94.47;;;30.08;;
75135;SDS011;63707;52.212;9.540;2024-03-07T11:04:35;78.22;;;26.80;;
75135;SDS011;63707;52.212;9.540;2024-03-07T11:07:03;81.45;;;27.88;;
75135;SDS011;63707;52.212;9.540;2024-03-07T11:09:28;78.35;;;28.00;;
75135;SDS011;63707;52.212;9.540;2024-03-07T11:11:58;79.20;;;26.65;;
75135;SDS011;63707;52.212;9.540;2024-03-07T11:14:25;93.20;;;28.98;;
75135;SDS011;63707;52.212;9.540;2024-03-07T11:16:53;83.43;;;29.45;;
75135;SDS011;63707;52.212;9.540;2024-03-07T11:19:29;88.55;;;29.63;;
75135;SDS011;63707;52.212;9.540;2024-03-07T11:21:56;80.38;;;27.80;;
75135;SDS011;63707;52.212;9.540;2024-03-07T11:24:24;86.65;;;29.23;;
75135;SDS011;63707;52.212;9.540;2024-03-07T11:26:50;78.78;;;28.42;;
75135;SDS011;63707;52.212;9.540;2024-03-07T11:32:11;80.43;;;27.35;;
75135;SDS011;63707;52.212;9.540;2024-03-07T11:34:39;75.72;;;28.02;;
75135;SDS011;63707;52.212;9.540;2024-03-07T11:37:11;82.00;;;27.13;;
75135;SDS011;63707;52.212;9.540;2024-03-07T11:39:44;75.43;;;25.17;;
75135;SDS011;63707;52.212;9.540;2024-03-07T11:42:19;57.78;;;23.63;;
75135;SDS011;63707;52.212;9.540;2024-03-07T11:44:48;59.88;;;22.58;;
75135;SDS011;63707;52.212;9.540;2024-03-07T11:47:14;65.10;;;22.98;;
75135;SDS011;63707;52.212;9.540;2024-03-07T11:49:41;58.53;;;22.17;;
75135;SDS011;63707;52.212;9.540;2024-03-07T11:52:06;61.47;;;23.48;;
75135;SDS011;63707;52.212;9.540;2024-03-07T11:54:38;55.33;;;23.52;;
75135;SDS011;63707;52.212;9.540;2024-03-07T11:57:07;61.60;;;23.48;;
75135;SDS011;63707;52.212;9.540;2024-03-07T11:59:38;69.03;;;25.20;;
75135;SDS011;63707;52.212;9.540;2024-03-07T12:02:04;67.70;;;25.45;;
75135;SDS011;63707;52.212;9.540;2024-03-07T12:04:30;58.33;;;23.95;;
75135;SDS011;63707;52.212;9.540;2024-03-07T12:06:55;61.35;;;24.27;;
75135;SDS011;63707;52.212;9.540;2024-03-07T12:09:21;67.55;;;25.55;;
75135;SDS011;63707;52.212;9.540;2024-03-07T12:11:49;63.63;;;25.42;;
75135;SDS011;63707;52.212;9.540;2024-03-07T12:14:19;64.10;;;25.52;;
75135;SDS011;63707;52.212;9.540;2024-03-07T12:16:44;63.08;;;25.85;;
75135;SDS011;63707;52.212;9.540;2024-03-07T12:19:10;68.45;;;25.13;;
75135;SDS011;63707;52.212;9.540;2024-03-07T12:21:36;67.32;;;24.83;;
75135;SDS011;63707;52.212;9.540;2024-03-07T12:24:10;68.47;;;26.13;;
75135;SDS011;63707;52.212;9.540;2024-03-07T12:26:36;69.00;;;25.63;;
75135;SDS011;63707;52.212;9.540;2024-03-07T12:29:06;76.00;;;27.23;;
75135;SDS011;63707;52.212;9.540;2024-03-07T12:31:38;69.00;;;25.15;;
75135;SDS011;63707;52.212;9.540;2024-03-07T12:34:03;69.68;;;24.88;;
75135;SDS011;63707;52.212;9.540;2024-03-07T12:36:30;67.72;;;25.10;;
75135;SDS011;63707;52.212;9.540;2024-03-07T12:38:59;72.53;;;26.63;;
75135;SDS011;63707;52.212;9.540;2024-03-07T12:41:34;66.75;;;25.95;;
75135;SDS011;63707;52.212;9.540;2024-03-07T12:43:59;72.95;;;27.67;;
75135;SDS011;63707;52.212;9.540;2024-03-07T12:46:25;64.95;;;24.92;;
75135;SDS011;63707;52.212;9.540;2024-03-07T12:48:54;63.03;;;24.63;;
75135;SDS011;63707;52.212;9.540;2024-03-07T12:51:23;59.85;;;23.38;;
75135;SDS011;63707;52.212;9.540;2024-03-07T12:53:49;55.60;;;22.02;;
75135;SDS011;63707;52.212;9.540;2024-03-07T12:56:15;56.72;;;22.35;;
75135;SDS011;63707;52.212;9.540;2024-03-07T12:58:43;64.60;;;26.23;;
75135;SDS011;63707;52.212;9.540;2024-03-07T13:01:09;58.33;;;23.58;;
75135;SDS011;63707;52.212;9.540;2024-03-07T13:03:36;57.97;;;23.50;;
75135;SDS011;63707;52.212;9.540;2024-03-07T13:06:03;55.17;;;22.75;;
75135;SDS011;63707;52.212;9.540;2024-03-07T13:08:29;51.65;;;22.77;;
75135;SDS011;63707;52.212;9.540;2024-03-07T13:10:55;57.50;;;22.58;;
75135;SDS011;63707;52.212;9.540;2024-03-07T13:13:24;53.85;;;21.88;;
75135;SDS011;63707;52.212;9.540;2024-03-07T13:15:49;49.05;;;20.58;;
75135;SDS011;63707;52.212;9.540;2024-03-07T13:18:18;51.72;;;20.15;;
75135;SDS011;63707;52.212;9.540;2024-03-07T13:20:43;48.08;;;20.02;;
75135;SDS011;63707;52.212;9.540;2024-03-07T13:23:12;52.25;;;22.30;;
75135;SDS011;63707;52.212;9.540;2024-03-07T13:25:37;45.33;;;20.42;;
75135;SDS011;63707;52.212;9.540;2024-03-07T13:28:04;50.97;;;22.23;;
75135;SDS011;63707;52.212;9.540;2024-03-07T13:30:38;45.67;;;20.75;;
75135;SDS011;63707;52.212;9.540;2024-03-07T13:33:05;46.95;;;19.98;;
75135;SDS011;63707;52.212;9.540;2024-03-07T13:35:31;51.90;;;20.70;;
75135;SDS011;63707;52.212;9.540;2024-03-07T13:37:57;47.20;;;20.05;;
75135;SDS011;63707;52.212;9.540;2024-03-07T13:40:24;51.08;;;20.92;;
75135;SDS011;63707;52.212;9.540;2024-03-07T13:42:51;48.75;;;20.52;;
75135;SDS011;63707;52.212;9.540;2024-03-07T13:45:17;41.15;;;17.13;;
75135;SDS011;63707;52.212;9.540;2024-03-07T13:47:43;41.53;;;20.42;;
75135;SDS011;63707;52.212;9.540;2024-03-07T13:50:09;44.33;;;19.40;;
75135;SDS011;63707;52.212;9.540;2024-03-07T13:52:37;45.17;;;19.27;;
75135;SDS011;63707;52.212;9.540;2024-03-07T13:55:08;51.92;;;22.48;;
75135;SDS011;63707;52.212;9.540;2024-03-07T13:57:39;50.00;;;21.17;;
75135;SDS011;63707;52.212;9.540;2024-03-07T14:00:16;43.97;;;20.42;;
75135;SDS011;63707;52.212;9.540;2024-03-07T14:03:11;45.45;;;20.00;;
75135;SDS011;63707;52.212;9.540;2024-03-07T14:05:53;53.28;;;21.95;;
75135;SDS011;63707;52.212;9.540;2024-03-07T14:08:32;46.75;;;20.90;;
75135;SDS011;63707;52.212;9.540;2024-03-07T14:14:39;46.60;;;20.48;;
75135;SDS011;63707;52.212;9.540;2024-03-07T14:17:27;46.47;;;19.80;;
75135;SDS011;63707;52.212;9.540;2024-03-07T14:23:37;42.63;;;20.60;;
75135;SDS011;63707;52.212;9.540;2024-03-07T14:26:16;43.58;;;20.15;;
75135;SDS011;63707;52.212;9.540;2024-03-07T14:29:12;44.38;;;19.95;;